sensor_id;sensor_type;location;lat;lon;timestamp;P1;durP1;ratioP1;P2;durP2;ratioP2
45318;SDS011;31057;48.498;32.260;2022-07-29T00:01:40;5.70;;;3.80;;
45318;SDS011;31057;48.498;32.260;2022-07-29T00:04:42;10.70;;;4.90;;
45318;SDS011;31057;48.498;32.260;2022-07-29T00:07:44;4.68;;;4.13;;
45318;SDS011;31057;48.498;32.260;2022-07-29T00:10:46;7.35;;;4.80;;
45318;SDS011;31057;48.498;32.260;2022-07-29T00:13:48;5.88;;;4.80;;
45318;SDS011;31057;48.498;32.260;2022-07-29T00:16:51;8.27;;;4.82;;
45318;SDS011;31057;48.498;32.260;2022-07-29T00:19:53;5.65;;;3.90;;
45318;SDS011;31057;48.498;32.260;2022-07-29T00:22:55;7.18;;;4.20;;
45318;SDS011;31057;48.498;32.260;2022-07-29T00:25:57;5.40;;;4.10;;
45318;SDS011;31057;48.498;32.260;2022-07-29T00:28:59;7.25;;;3.80;;
45318;SDS011;31057;48.498;32.260;2022-07-29T00:32:22;4.45;;;3.75;;
45318;SDS011;31057;48.498;32.260;2022-07-29T00:35:25;5.13;;;4.30;;
45318;SDS011;31057;48.498;32.260;2022-07-29T00:38:45;5.38;;;4.80;;
45318;SDS011;31057;48.498;32.260;2022-07-29T00:41:48;12.10;;;4.55;;
45318;SDS011;31057;48.498;32.260;2022-07-29T00:44:51;6.90;;;4.00;;
45318;SDS011;31057;48.498;32.260;2022-07-29T00:47:53;5.53;;;4.40;;
45318;SDS011;31057;48.498;32.260;2022-07-29T00:50:55;7.40;;;3.92;;
45318;SDS011;31057;48.498;32.260;2022-07-29T00:53:59;8.25;;;4.25;;
45318;SDS011;31057;48.498;32.260;2022-07-29T00:57:01;9.98;;;4.38;;
45318;SDS011;31057;48.498;32.260;2022-07-29T01:00:08;6.03;;;4.38;;
45318;SDS011;31057;48.498;32.260;2022-07-29T01:03:11;7.05;;;3.95;;
45318;SDS011;31057;48.498;32.260;2022-07-29T01:06:14;5.33;;;4.30;;
45318;SDS011;31057;48.498;32.260;2022-07-29T01:09:18;6.07;;;3.90;;
45318;SDS011;31057;48.498;32.260;2022-07-29T01:12:41;10.00;;;5.38;;
45318;SDS011;31057;48.498;32.260;2022-07-29T01:15:47;8.52;;;5.75;;
45318;SDS011;31057;48.498;32.260;2022-07-29T01:18:56;7.57;;;5.18;;
45318;SDS011;31057;48.498;32.260;2022-07-29T01:22:21;7.32;;;4.90;;
45318;SDS011;31057;48.498;32.260;2022-07-29T01:25:54;9.75;;;4.70;;
45318;SDS011;31057;48.498;32.260;2022-07-29T01:29:18;5.00;;;4.43;;
45318;SDS011;31057;48.498;32.260;2022-07-29T01:32:40;6.00;;;5.13;;
45318;SDS011;31057;48.498;32.260;2022-07-29T01:35:44;7.07;;;5.18;;
45318;SDS011;31057;48.498;32.260;2022-07-29T01:38:49;7.97;;;4.45;;
45318;SDS011;31057;48.498;32.260;2022-07-29T01:42:04;8.15;;;4.03;;
45318;SDS011;31057;48.498;32.260;2022-07-29T01:45:21;4.72;;;4.25;;
45318;SDS011;31057;48.498;32.260;2022-07-29T01:52:07;7.80;;;5.55;;
45318;SDS011;31057;48.498;32.260;2022-07-29T01:55:20;10.35;;;5.20;;
45318;SDS011;31057;48.498;32.260;2022-07-29T01:58:26;5.60;;;5.00;;
45318;SDS011;31057;48.498;32.260;2022-07-29T02:01:31;7.75;;;5.20;;
45318;SDS011;31057;48.498;32.260;2022-07-29T02:04:35;5.07;;;4.57;;
45318;SDS011;31057;48.498;32.260;2022-07-29T02:07:40;8.38;;;5.03;;
45318;SDS011;31057;48.498;32.260;2022-07-29T02:10:44;5.88;;;4.88;;
45318;SDS011;31057;48.498;32.260;2022-07-29T02:13:46;10.57;;;5.35;;
45318;SDS011;31057;48.498;32.260;2022-07-29T02:19:56;8.93;;;4.80;;
45318;SDS011;31057;48.498;32.260;2022-07-29T02:23:01;8.40;;;5.30;;
45318;SDS011;31057;48.498;32.260;2022-07-29T02:26:04;7.72;;;4.78;;
45318;SDS011;31057;48.498;32.260;2022-07-29T02:29:08;6.65;;;5.00;;
45318;SDS011;31057;48.498;32.260;2022-07-29T02:32:13;6.82;;;4.57;;
45318;SDS011;31057;48.498;32.260;2022-07-29T02:35:17;10.18;;;5.53;;
45318;SDS011;31057;48.498;32.260;2022-07-29T02:38:21;7.70;;;4.78;;
45318;SDS011;31057;48.498;32.260;2022-07-29T02:41:47;7.85;;;4.35;;
45318;SDS011;31057;48.498;32.260;2022-07-29T02:44:51;6.03;;;4.53;;
45318;SDS011;31057;48.498;32.260;2022-07-29T02:47:53;5.25;;;4.22;;
45318;SDS011;31057;48.498;32.260;2022-07-29T02:51:01;6.53;;;4.43;;
45318;SDS011;31057;48.498;32.260;2022-07-29T02:54:31;9.35;;;4.45;;
45318;SDS011;31057;48.498;32.260;2022-07-29T03:01:31;8.90;;;4.03;;
45318;SDS011;31057;48.498;32.260;2022-07-29T03:04:35;7.53;;;3.83;;
45318;SDS011;31057;48.498;32.260;2022-07-29T03:07:38;5.15;;;3.00;;
45318;SDS011;31057;48.498;32.260;2022-07-29T03:13:45;7.80;;;3.70;;
45318;SDS011;31057;48.498;32.260;2022-07-29T03:16:47;8.20;;;4.53;;
45318;SDS011;31057;48.498;32.260;2022-07-29T03:19:50;7.43;;;4.07;;
45318;SDS011;31057;48.498;32.260;2022-07-29T03:22:52;8.77;;;4.80;;
45318;SDS011;31057;48.498;32.260;2022-07-29T03:25:54;7.30;;;4.28;;
45318;SDS011;31057;48.498;32.260;2022-07-29T03:28:57;9.00;;;4.00;;
45318;SDS011;31057;48.498;32.260;2022-07-29T03:32:00;4.15;;;3.63;;
45318;SDS011;31057;48.498;32.260;2022-07-29T03:35:08;8.50;;;4.65;;
45318;SDS011;31057;48.498;32.260;2022-07-29T03:38:11;7.55;;;4.10;;
45318;SDS011;31057;48.498;32.260;2022-07-29T03:41:13;18.13;;;5.10;;
45318;SDS011;31057;48.498;32.260;2022-07-29T03:44:22;7.28;;;4.05;;
45318;SDS011;31057;48.498;32.260;2022-07-29T03:47:27;9.75;;;4.38;;
45318;SDS011;31057;48.498;32.260;2022-07-29T03:50:51;8.43;;;4.45;;
45318;SDS011;31057;48.498;32.260;2022-07-29T03:53:53;6.57;;;4.10;;
45318;SDS011;31057;48.498;32.260;2022-07-29T03:56:56;7.95;;;4.15;;
45318;SDS011;31057;48.498;32.260;2022-07-29T04:00:01;7.63;;;4.20;;
45318;SDS011;31057;48.498;32.260;2022-07-29T04:03:06;6.03;;;3.15;;
45318;SDS011;31057;48.498;32.260;2022-07-29T04:06:12;7.15;;;3.28;;
45318;SDS011;31057;48.498;32.260;2022-07-29T04:09:14;4.85;;;3.40;;
45318;SDS011;31057;48.498;32.260;2022-07-29T04:12:16;6.38;;;3.13;;
45318;SDS011;31057;48.498;32.260;2022-07-29T04:15:18;6.15;;;3.70;;
45318;SDS011;31057;48.498;32.260;2022-07-29T04:18:20;7.18;;;3.75;;
45318;SDS011;31057;48.498;32.260;2022-07-29T04:21:22;6.50;;;3.28;;
45318;SDS011;31057;48.498;32.260;2022-07-29T04:24:24;8.98;;;3.47;;
45318;SDS011;31057;48.498;32.260;2022-07-29T04:27:26;6.07;;;3.17;;
45318;SDS011;31057;48.498;32.260;2022-07-29T04:30:29;6.20;;;3.33;;
45318;SDS011;31057;48.498;32.260;2022-07-29T04:33:32;6.13;;;3.30;;
45318;SDS011;31057;48.498;32.260;2022-07-29T04:36:34;9.00;;;3.40;;
45318;SDS011;31057;48.498;32.260;2022-07-29T04:39:36;7.50;;;3.10;;
45318;SDS011;31057;48.498;32.260;2022-07-29T04:42:38;7.80;;;3.42;;
45318;SDS011;31057;48.498;32.260;2022-07-29T04:45:46;6.88;;;3.30;;
45318;SDS011;31057;48.498;32.260;2022-07-29T04:48:48;6.10;;;2.90;;
45318;SDS011;31057;48.498;32.260;2022-07-29T04:51:50;8.20;;;4.47;;
45318;SDS011;31057;48.498;32.260;2022-07-29T04:54:52;7.97;;;2.90;;
45318;SDS011;31057;48.498;32.260;2022-07-29T04:57:54;6.35;;;3.03;;
45318;SDS011;31057;48.498;32.260;2022-07-29T05:00:57;3.13;;;2.30;;
45318;SDS011;31057;48.498;32.260;2022-07-29T05:03:58;4.90;;;2.78;;
45318;SDS011;31057;48.498;32.260;2022-07-29T05:07:01;6.85;;;2.60;;
45318;SDS011;31057;48.498;32.260;2022-07-29T05:10:03;4.22;;;2.55;;
45318;SDS011;31057;48.498;32.260;2022-07-29T05:13:05;5.40;;;2.22;;
45318;SDS011;31057;48.498;32.260;2022-07-29T05:19:10;7.35;;;2.05;;
45318;SDS011;31057;48.498;32.260;2022-07-29T05:22:15;7.40;;;2.10;;
45318;SDS011;31057;48.498;32.260;2022-07-29T05:25:17;3.38;;;2.00;;
45318;SDS011;31057;48.498;32.260;2022-07-29T05:28:19;3.63;;;2.28;;
45318;SDS011;31057;48.498;32.260;2022-07-29T05:31:20;8.73;;;2.10;;
45318;SDS011;31057;48.498;32.260;2022-07-29T05:34:22;6.90;;;2.38;;
45318;SDS011;31057;48.498;32.260;2022-07-29T05:37:26;8.35;;;2.40;;
45318;SDS011;31057;48.498;32.260;2022-07-29T05:40:28;6.18;;;2.40;;
45318;SDS011;31057;48.498;32.260;2022-07-29T05:43:30;3.42;;;2.00;;
45318;SDS011;31057;48.498;32.260;2022-07-29T05:46:32;3.85;;;1.63;;
45318;SDS011;31057;48.498;32.260;2022-07-29T05:49:34;3.55;;;1.92;;
45318;SDS011;31057;48.498;32.260;2022-07-29T05:52:36;6.13;;;2.13;;
45318;SDS011;31057;48.498;32.260;2022-07-29T05:55:38;3.35;;;2.10;;
45318;SDS011;31057;48.498;32.260;2022-07-29T05:58:40;5.97;;;1.70;;
45318;SDS011;31057;48.498;32.260;2022-07-29T06:01:42;3.97;;;2.10;;
45318;SDS011;31057;48.498;32.260;2022-07-29T06:04:44;4.28;;;1.88;;
45318;SDS011;31057;48.498;32.260;2022-07-29T06:07:46;2.45;;;1.63;;
45318;SDS011;31057;48.498;32.260;2022-07-29T06:10:51;5.20;;;2.42;;
45318;SDS011;31057;48.498;32.260;2022-07-29T06:13:53;4.05;;;1.88;;
45318;SDS011;31057;48.498;32.260;2022-07-29T06:16:55;4.80;;;1.73;;
45318;SDS011;31057;48.498;32.260;2022-07-29T06:19:57;6.90;;;2.25;;
45318;SDS011;31057;48.498;32.260;2022-07-29T07:17:13;3.90;;;1.80;;
45318;SDS011;31057;48.498;32.260;2022-07-29T07:20:16;3.50;;;1.60;;
45318;SDS011;31057;48.498;32.260;2022-07-29T07:23:18;7.28;;;1.70;;
45318;SDS011;31057;48.498;32.260;2022-07-29T07:26:20;9.77;;;1.90;;
45318;SDS011;31057;48.498;32.260;2022-07-29T07:29:22;2.88;;;1.75;;
45318;SDS011;31057;48.498;32.260;2022-07-29T07:32:24;4.07;;;1.73;;
45318;SDS011;31057;48.498;32.260;2022-07-29T07:35:27;5.78;;;1.92;;
45318;SDS011;31057;48.498;32.260;2022-07-29T07:38:29;11.27;;;2.00;;
45318;SDS011;31057;48.498;32.260;2022-07-29T07:41:31;3.97;;;1.98;;
45318;SDS011;31057;48.498;32.260;2022-07-29T07:44:33;7.13;;;2.63;;
45318;SDS011;31057;48.498;32.260;2022-07-29T07:47:55;4.88;;;1.98;;
45318;SDS011;31057;48.498;32.260;2022-07-29T07:50:57;4.82;;;1.70;;
45318;SDS011;31057;48.498;32.260;2022-07-29T07:53:59;6.22;;;1.80;;
45318;SDS011;31057;48.498;32.260;2022-07-29T07:57:02;7.38;;;2.28;;
45318;SDS011;31057;48.498;32.260;2022-07-29T08:00:05;6.07;;;2.05;;
45318;SDS011;31057;48.498;32.260;2022-07-29T08:03:07;7.15;;;1.85;;
45318;SDS011;31057;48.498;32.260;2022-07-29T08:06:17;5.35;;;2.60;;
45318;SDS011;31057;48.498;32.260;2022-07-29T08:09:23;8.05;;;2.47;;
45318;SDS011;31057;48.498;32.260;2022-07-29T08:12:30;5.45;;;2.33;;
45318;SDS011;31057;48.498;32.260;2022-07-29T08:15:32;3.30;;;1.65;;
45318;SDS011;31057;48.498;32.260;2022-07-29T08:18:35;4.88;;;1.60;;
45318;SDS011;31057;48.498;32.260;2022-07-29T08:21:37;3.50;;;1.77;;
45318;SDS011;31057;48.498;32.260;2022-07-29T08:24:39;8.10;;;2.15;;
45318;SDS011;31057;48.498;32.260;2022-07-29T08:27:44;4.72;;;1.65;;
45318;SDS011;31057;48.498;32.260;2022-07-29T08:30:46;6.75;;;1.77;;
45318;SDS011;31057;48.498;32.260;2022-07-29T08:33:49;5.93;;;2.72;;
45318;SDS011;31057;48.498;32.260;2022-07-29T08:36:51;8.80;;;2.15;;
45318;SDS011;31057;48.498;32.260;2022-07-29T08:39:53;3.50;;;1.65;;
45318;SDS011;31057;48.498;32.260;2022-07-29T08:42:55;4.35;;;1.33;;
45318;SDS011;31057;48.498;32.260;2022-07-29T08:45:57;7.30;;;1.70;;
45318;SDS011;31057;48.498;32.260;2022-07-29T08:48:59;7.30;;;2.23;;
45318;SDS011;31057;48.498;32.260;2022-07-29T08:52:03;3.47;;;1.58;;
45318;SDS011;31057;48.498;32.260;2022-07-29T08:55:06;4.13;;;1.70;;
45318;SDS011;31057;48.498;32.260;2022-07-29T08:58:10;3.55;;;1.50;;
45318;SDS011;31057;48.498;32.260;2022-07-29T09:01:22;5.82;;;1.60;;
45318;SDS011;31057;48.498;32.260;2022-07-29T09:04:42;5.93;;;1.70;;
45318;SDS011;31057;48.498;32.260;2022-07-29T09:07:44;2.20;;;1.57;;
45318;SDS011;31057;48.498;32.260;2022-07-29T09:10:49;3.25;;;1.30;;
45318;SDS011;31057;48.498;32.260;2022-07-29T09:13:52;13.30;;;2.33;;
45318;SDS011;31057;48.498;32.260;2022-07-29T09:16:55;4.43;;;1.42;;
45318;SDS011;31057;48.498;32.260;2022-07-29T09:20:07;2.55;;;1.63;;
45318;SDS011;31057;48.498;32.260;2022-07-29T09:23:11;3.47;;;1.50;;
45318;SDS011;31057;48.498;32.260;2022-07-29T09:26:27;3.92;;;1.75;;
45318;SDS011;31057;48.498;32.260;2022-07-29T09:29:30;4.85;;;1.67;;
45318;SDS011;31057;48.498;32.260;2022-07-29T09:32:55;4.07;;;1.30;;
45318;SDS011;31057;48.498;32.260;2022-07-29T09:36:06;3.50;;;1.63;;
45318;SDS011;31057;48.498;32.260;2022-07-29T09:39:09;7.80;;;2.38;;
45318;SDS011;31057;48.498;32.260;2022-07-29T09:42:12;6.25;;;1.52;;
45318;SDS011;31057;48.498;32.260;2022-07-29T09:45:32;2.30;;;1.20;;
45318;SDS011;31057;48.498;32.260;2022-07-29T09:48:35;5.32;;;1.65;;
45318;SDS011;31057;48.498;32.260;2022-07-29T09:51:37;3.28;;;1.58;;
45318;SDS011;31057;48.498;32.260;2022-07-29T09:54:39;3.40;;;1.48;;
45318;SDS011;31057;48.498;32.260;2022-07-29T09:57:41;1.90;;;1.42;;
45318;SDS011;31057;48.498;32.260;2022-07-29T10:00:45;3.88;;;1.55;;
45318;SDS011;31057;48.498;32.260;2022-07-29T10:03:51;1.67;;;1.35;;
45318;SDS011;31057;48.498;32.260;2022-07-29T10:10:05;4.57;;;1.50;;
45318;SDS011;31057;48.498;32.260;2022-07-29T10:13:14;2.45;;;1.50;;
45318;SDS011;31057;48.498;32.260;2022-07-29T10:16:17;5.22;;;1.60;;
45318;SDS011;31057;48.498;32.260;2022-07-29T10:19:19;2.13;;;1.40;;
45318;SDS011;31057;48.498;32.260;2022-07-29T10:22:21;5.35;;;1.80;;
45318;SDS011;31057;48.498;32.260;2022-07-29T10:25:45;3.53;;;1.40;;
45318;SDS011;31057;48.498;32.260;2022-07-29T10:28:47;2.45;;;1.60;;
45318;SDS011;31057;48.498;32.260;2022-07-29T10:32:09;2.83;;;1.60;;
45318;SDS011;31057;48.498;32.260;2022-07-29T10:35:34;4.07;;;1.45;;
45318;SDS011;31057;48.498;32.260;2022-07-29T10:42:45;6.13;;;1.55;;
45318;SDS011;31057;48.498;32.260;2022-07-29T10:45:48;7.25;;;1.67;;
45318;SDS011;31057;48.498;32.260;2022-07-29T10:49:11;7.07;;;1.52;;
45318;SDS011;31057;48.498;32.260;2022-07-29T10:52:51;5.57;;;1.92;;
45318;SDS011;31057;48.498;32.260;2022-07-29T10:55:59;4.10;;;1.88;;
45318;SDS011;31057;48.498;32.260;2022-07-29T11:06:00;2.35;;;1.50;;
45318;SDS011;31057;48.498;32.260;2022-07-29T11:09:15;2.45;;;1.13;;
45318;SDS011;31057;48.498;32.260;2022-07-29T11:12:45;3.60;;;1.30;;
45318;SDS011;31057;48.498;32.260;2022-07-29T11:15:52;1.85;;;1.20;;
45318;SDS011;31057;48.498;32.260;2022-07-29T11:22:31;8.07;;;1.67;;
45318;SDS011;31057;48.498;32.260;2022-07-29T11:25:43;2.97;;;1.50;;
45318;SDS011;31057;48.498;32.260;2022-07-29T11:28:54;4.30;;;1.40;;
45318;SDS011;31057;48.498;32.260;2022-07-29T11:32:08;2.25;;;1.10;;
45318;SDS011;31057;48.498;32.260;2022-07-29T11:35:19;3.50;;;1.20;;
45318;SDS011;31057;48.498;32.260;2022-07-29T11:38:40;4.72;;;1.60;;
45318;SDS011;31057;48.498;32.260;2022-07-29T11:41:42;1.48;;;1.00;;
45318;SDS011;31057;48.498;32.260;2022-07-29T11:45:00;2.28;;;1.33;;
45318;SDS011;31057;48.498;32.260;2022-07-29T11:48:22;2.15;;;1.17;;
45318;SDS011;31057;48.498;32.260;2022-07-29T11:51:32;4.10;;;1.45;;
45318;SDS011;31057;48.498;32.260;2022-07-29T11:54:34;6.83;;;1.70;;
45318;SDS011;31057;48.498;32.260;2022-07-29T11:57:58;6.35;;;1.50;;
45318;SDS011;31057;48.498;32.260;2022-07-29T12:01:04;4.72;;;1.50;;
45318;SDS011;31057;48.498;32.260;2022-07-29T12:07:11;2.50;;;1.20;;
45318;SDS011;31057;48.498;32.260;2022-07-29T12:10:15;5.13;;;1.30;;
45318;SDS011;31057;48.498;32.260;2022-07-29T12:13:20;6.90;;;1.65;;
45318;SDS011;31057;48.498;32.260;2022-07-29T12:16:38;2.83;;;1.30;;
45318;SDS011;31057;48.498;32.260;2022-07-29T12:19:44;3.85;;;1.13;;
45318;SDS011;31057;48.498;32.260;2022-07-29T12:22:46;1.58;;;1.23;;
45318;SDS011;31057;48.498;32.260;2022-07-29T12:25:50;4.68;;;1.45;;
45318;SDS011;31057;48.498;32.260;2022-07-29T12:28:54;2.80;;;1.17;;
45318;SDS011;31057;48.498;32.260;2022-07-29T12:31:57;4.38;;;1.25;;
45318;SDS011;31057;48.498;32.260;2022-07-29T12:35:07;3.50;;;1.25;;
45318;SDS011;31057;48.498;32.260;2022-07-29T12:38:11;3.33;;;1.33;;
45318;SDS011;31057;48.498;32.260;2022-07-29T12:44:15;3.88;;;1.30;;
45318;SDS011;31057;48.498;32.260;2022-07-29T12:47:18;2.78;;;1.50;;
45318;SDS011;31057;48.498;32.260;2022-07-29T12:50:21;2.80;;;1.10;;
45318;SDS011;31057;48.498;32.260;2022-07-29T12:53:27;2.97;;;1.20;;
45318;SDS011;31057;48.498;32.260;2022-07-29T13:03:04;4.28;;;1.50;;
45318;SDS011;31057;48.498;32.260;2022-07-29T13:06:23;1.48;;;1.38;;
45318;SDS011;31057;48.498;32.260;2022-07-29T13:09:43;7.22;;;2.05;;
45318;SDS011;31057;48.498;32.260;2022-07-29T13:19:12;4.32;;;2.63;;
45318;SDS011;31057;48.498;32.260;2022-07-29T13:22:15;16.17;;;2.25;;
45318;SDS011;31057;48.498;32.260;2022-07-29T13:25:29;10.00;;;2.20;;
45318;SDS011;31057;48.498;32.260;2022-07-29T13:28:32;16.67;;;3.17;;
45318;SDS011;31057;48.498;32.260;2022-07-29T13:31:35;3.90;;;2.33;;
45318;SDS011;31057;48.498;32.260;2022-07-29T13:34:37;3.58;;;1.80;;
45318;SDS011;31057;48.498;32.260;2022-07-29T13:37:39;2.25;;;1.63;;
45318;SDS011;31057;48.498;32.260;2022-07-29T13:43:44;2.03;;;1.30;;
45318;SDS011;31057;48.498;32.260;2022-07-29T13:46:50;4.40;;;1.58;;
45318;SDS011;31057;48.498;32.260;2022-07-29T13:49:52;4.00;;;1.40;;
45318;SDS011;31057;48.498;32.260;2022-07-29T13:52:54;4.65;;;1.38;;
45318;SDS011;31057;48.498;32.260;2022-07-29T13:55:56;4.53;;;1.97;;
45318;SDS011;31057;48.498;32.260;2022-07-29T13:58:58;3.45;;;2.22;;
45318;SDS011;31057;48.498;32.260;2022-07-29T14:02:00;2.95;;;1.70;;
45318;SDS011;31057;48.498;32.260;2022-07-29T14:05:02;6.25;;;2.00;;
45318;SDS011;31057;48.498;32.260;2022-07-29T14:08:08;5.35;;;1.52;;
45318;SDS011;31057;48.498;32.260;2022-07-29T14:11:11;2.33;;;1.50;;
45318;SDS011;31057;48.498;32.260;2022-07-29T14:14:13;7.75;;;2.15;;
45318;SDS011;31057;48.498;32.260;2022-07-29T14:17:15;4.95;;;1.58;;
45318;SDS011;31057;48.498;32.260;2022-07-29T14:20:18;4.35;;;1.80;;
45318;SDS011;31057;48.498;32.260;2022-07-29T14:23:21;4.32;;;2.17;;
45318;SDS011;31057;48.498;32.260;2022-07-29T14:26:23;4.43;;;1.58;;
45318;SDS011;31057;48.498;32.260;2022-07-29T14:29:25;5.47;;;1.80;;
45318;SDS011;31057;48.498;32.260;2022-07-29T14:32:38;3.42;;;1.75;;
45318;SDS011;31057;48.498;32.260;2022-07-29T14:35:40;5.75;;;2.00;;
45318;SDS011;31057;48.498;32.260;2022-07-29T14:38:42;2.80;;;1.55;;
45318;SDS011;31057;48.498;32.260;2022-07-29T14:41:44;2.33;;;1.60;;
45318;SDS011;31057;48.498;32.260;2022-07-29T14:44:46;6.30;;;1.52;;
45318;SDS011;31057;48.498;32.260;2022-07-29T14:47:50;5.07;;;1.77;;
45318;SDS011;31057;48.498;32.260;2022-07-29T14:50:57;4.32;;;1.40;;
45318;SDS011;31057;48.498;32.260;2022-07-29T14:54:05;7.65;;;2.00;;
45318;SDS011;31057;48.498;32.260;2022-07-29T14:57:07;3.83;;;1.90;;
45318;SDS011;31057;48.498;32.260;2022-07-29T15:00:10;4.68;;;1.88;;
45318;SDS011;31057;48.498;32.260;2022-07-29T15:03:12;4.75;;;1.50;;
45318;SDS011;31057;48.498;32.260;2022-07-29T15:06:24;4.90;;;1.70;;
45318;SDS011;31057;48.498;32.260;2022-07-29T15:09:26;8.07;;;1.77;;
45318;SDS011;31057;48.498;32.260;2022-07-29T15:12:28;4.72;;;1.48;;
45318;SDS011;31057;48.498;32.260;2022-07-29T15:15:30;6.67;;;1.57;;
45318;SDS011;31057;48.498;32.260;2022-07-29T15:18:32;5.38;;;1.60;;
45318;SDS011;31057;48.498;32.260;2022-07-29T15:21:35;4.38;;;1.90;;
45318;SDS011;31057;48.498;32.260;2022-07-29T15:24:49;4.00;;;1.45;;
45318;SDS011;31057;48.498;32.260;2022-07-29T15:27:51;1.77;;;1.38;;
45318;SDS011;31057;48.498;32.260;2022-07-29T15:30:59;8.23;;;1.90;;
45318;SDS011;31057;48.498;32.260;2022-07-29T15:34:01;7.32;;;1.83;;
45318;SDS011;31057;48.498;32.260;2022-07-29T15:37:06;2.17;;;1.48;;
45318;SDS011;31057;48.498;32.260;2022-07-29T15:40:09;3.05;;;1.55;;
45318;SDS011;31057;48.498;32.260;2022-07-29T15:46:14;4.40;;;1.63;;
45318;SDS011;31057;48.498;32.260;2022-07-29T15:49:37;5.10;;;1.57;;
45318;SDS011;31057;48.498;32.260;2022-07-29T15:52:49;6.88;;;1.45;;
45318;SDS011;31057;48.498;32.260;2022-07-29T15:55:51;7.57;;;1.58;;
45318;SDS011;31057;48.498;32.260;2022-07-29T15:58:53;3.78;;;2.10;;
45318;SDS011;31057;48.498;32.260;2022-07-29T16:01:55;8.52;;;2.00;;
45318;SDS011;31057;48.498;32.260;2022-07-29T16:04:57;6.80;;;1.63;;
45318;SDS011;31057;48.498;32.260;2022-07-29T16:07:59;3.75;;;1.55;;
45318;SDS011;31057;48.498;32.260;2022-07-29T16:11:01;4.00;;;1.92;;
45318;SDS011;31057;48.498;32.260;2022-07-29T16:14:04;9.55;;;2.10;;
45318;SDS011;31057;48.498;32.260;2022-07-29T16:17:09;7.35;;;2.40;;
45318;SDS011;31057;48.498;32.260;2022-07-29T16:20:15;9.10;;;1.67;;
45318;SDS011;31057;48.498;32.260;2022-07-29T16:23:17;6.13;;;1.77;;
45318;SDS011;31057;48.498;32.260;2022-07-29T16:26:19;6.00;;;1.93;;
45318;SDS011;31057;48.498;32.260;2022-07-29T16:29:21;8.98;;;1.80;;
45318;SDS011;31057;48.498;32.260;2022-07-29T16:32:23;4.70;;;1.60;;
45318;SDS011;31057;48.498;32.260;2022-07-29T16:35:25;4.57;;;1.90;;
45318;SDS011;31057;48.498;32.260;2022-07-29T16:38:40;9.15;;;2.20;;
45318;SDS011;31057;48.498;32.260;2022-07-29T16:41:47;5.28;;;1.98;;
45318;SDS011;31057;48.498;32.260;2022-07-29T16:44:50;4.80;;;1.80;;
45318;SDS011;31057;48.498;32.260;2022-07-29T16:47:53;3.10;;;1.63;;
45318;SDS011;31057;48.498;32.260;2022-07-29T16:51:00;4.25;;;1.52;;
45318;SDS011;31057;48.498;32.260;2022-07-29T16:54:02;5.35;;;1.88;;
45318;SDS011;31057;48.498;32.260;2022-07-29T16:57:05;9.02;;;2.05;;
45318;SDS011;31057;48.498;32.260;2022-07-29T17:00:07;4.27;;;1.53;;
45318;SDS011;31057;48.498;32.260;2022-07-29T17:03:09;5.22;;;1.83;;
45318;SDS011;31057;48.498;32.260;2022-07-29T17:06:13;4.53;;;2.03;;
45318;SDS011;31057;48.498;32.260;2022-07-29T17:09:15;2.33;;;1.50;;
45318;SDS011;31057;48.498;32.260;2022-07-29T17:12:18;3.53;;;1.80;;
45318;SDS011;31057;48.498;32.260;2022-07-29T17:15:22;3.63;;;2.05;;
45318;SDS011;31057;48.498;32.260;2022-07-29T17:18:36;2.67;;;1.65;;
45318;SDS011;31057;48.498;32.260;2022-07-29T17:21:38;4.20;;;1.90;;
45318;SDS011;31057;48.498;32.260;2022-07-29T17:24:49;4.82;;;1.63;;
45318;SDS011;31057;48.498;32.260;2022-07-29T17:27:52;3.75;;;1.90;;
45318;SDS011;31057;48.498;32.260;2022-07-29T17:31:01;10.90;;;2.10;;
45318;SDS011;31057;48.498;32.260;2022-07-29T17:34:03;9.07;;;2.33;;
45318;SDS011;31057;48.498;32.260;2022-07-29T17:37:07;5.60;;;2.03;;
45318;SDS011;31057;48.498;32.260;2022-07-29T17:40:11;8.27;;;2.50;;
45318;SDS011;31057;48.498;32.260;2022-07-29T17:43:12;6.38;;;1.88;;
45318;SDS011;31057;48.498;32.260;2022-07-29T17:46:15;5.85;;;1.75;;
45318;SDS011;31057;48.498;32.260;2022-07-29T17:49:18;6.75;;;2.30;;
45318;SDS011;31057;48.498;32.260;2022-07-29T17:52:20;5.53;;;2.05;;
45318;SDS011;31057;48.498;32.260;2022-07-29T17:55:22;3.75;;;1.98;;
45318;SDS011;31057;48.498;32.260;2022-07-29T17:58:24;8.50;;;1.95;;
45318;SDS011;31057;48.498;32.260;2022-07-29T18:01:26;9.53;;;3.07;;
45318;SDS011;31057;48.498;32.260;2022-07-29T18:04:28;14.68;;;3.22;;
45318;SDS011;31057;48.498;32.260;2022-07-29T18:07:31;7.22;;;2.40;;
45318;SDS011;31057;48.498;32.260;2022-07-29T18:10:33;11.17;;;3.53;;
45318;SDS011;31057;48.498;32.260;2022-07-29T18:13:36;8.18;;;3.00;;
45318;SDS011;31057;48.498;32.260;2022-07-29T18:19:41;6.07;;;2.58;;
45318;SDS011;31057;48.498;32.260;2022-07-29T18:22:43;15.15;;;2.60;;
45318;SDS011;31057;48.498;32.260;2022-07-29T18:25:45;8.68;;;2.83;;
45318;SDS011;31057;48.498;32.260;2022-07-29T18:28:47;7.03;;;2.63;;
45318;SDS011;31057;48.498;32.260;2022-07-29T18:31:49;7.35;;;2.85;;
45318;SDS011;31057;48.498;32.260;2022-07-29T18:34:51;13.20;;;3.30;;
45318;SDS011;31057;48.498;32.260;2022-07-29T18:37:53;13.10;;;4.70;;
45318;SDS011;31057;48.498;32.260;2022-07-29T18:41:02;12.32;;;2.33;;
45318;SDS011;31057;48.498;32.260;2022-07-29T18:44:04;6.07;;;2.55;;
45318;SDS011;31057;48.498;32.260;2022-07-29T18:47:06;10.98;;;2.80;;
45318;SDS011;31057;48.498;32.260;2022-07-29T18:50:12;5.93;;;2.67;;
45318;SDS011;31057;48.498;32.260;2022-07-29T18:53:14;8.30;;;2.83;;
45318;SDS011;31057;48.498;32.260;2022-07-29T18:56:16;8.60;;;2.67;;
45318;SDS011;31057;48.498;32.260;2022-07-29T18:59:17;11.85;;;3.00;;
45318;SDS011;31057;48.498;32.260;2022-07-29T19:02:21;13.35;;;2.88;;
45318;SDS011;31057;48.498;32.260;2022-07-29T19:05:23;11.37;;;3.03;;
45318;SDS011;31057;48.498;32.260;2022-07-29T19:08:25;8.75;;;3.05;;
45318;SDS011;31057;48.498;32.260;2022-07-29T19:11:27;7.50;;;2.63;;
45318;SDS011;31057;48.498;32.260;2022-07-29T19:14:29;11.13;;;2.65;;
45318;SDS011;31057;48.498;32.260;2022-07-29T19:17:31;11.23;;;3.00;;
45318;SDS011;31057;48.498;32.260;2022-07-29T19:20:33;7.05;;;2.35;;
45318;SDS011;31057;48.498;32.260;2022-07-29T19:23:36;8.67;;;2.57;;
45318;SDS011;31057;48.498;32.260;2022-07-29T19:26:58;9.73;;;2.63;;
45318;SDS011;31057;48.498;32.260;2022-07-29T19:30:00;8.43;;;3.63;;
45318;SDS011;31057;48.498;32.260;2022-07-29T19:33:03;10.32;;;3.72;;
45318;SDS011;31057;48.498;32.260;2022-07-29T19:36:05;7.55;;;3.67;;
45318;SDS011;31057;48.498;32.260;2022-07-29T19:39:07;13.63;;;4.03;;
45318;SDS011;31057;48.498;32.260;2022-07-29T19:42:10;10.85;;;4.50;;
45318;SDS011;31057;48.498;32.260;2022-07-29T19:45:12;10.13;;;4.43;;
45318;SDS011;31057;48.498;32.260;2022-07-29T19:48:14;16.08;;;5.80;;
45318;SDS011;31057;48.498;32.260;2022-07-29T19:51:16;13.65;;;5.88;;
45318;SDS011;31057;48.498;32.260;2022-07-29T19:54:18;13.00;;;7.40;;
45318;SDS011;31057;48.498;32.260;2022-07-29T19:57:21;12.57;;;6.78;;
45318;SDS011;31057;48.498;32.260;2022-07-29T20:00:24;15.02;;;6.15;;
45318;SDS011;31057;48.498;32.260;2022-07-29T20:03:26;14.00;;;5.85;;
45318;SDS011;31057;48.498;32.260;2022-07-29T20:06:29;17.00;;;6.60;;
45318;SDS011;31057;48.498;32.260;2022-07-29T20:09:36;11.00;;;6.38;;
45318;SDS011;31057;48.498;32.260;2022-07-29T20:12:40;15.38;;;6.45;;
45318;SDS011;31057;48.498;32.260;2022-07-29T20:15:43;20.23;;;6.35;;